Time;durP1;ratioP1;P1;durP2;ratioP2;P2;SDS_P1;SDS_P2;PMS_P1;PMS_P2;Temp;Humidity;BMP_temperature;BMP_pressure;BME280_temperature;BME280_humidity;BME280_pressure;Samples;Min_cycle;Max_cycle;Signal;HPM_P1;HPM_P2
2022/10/23 00:01:47;;;;;;;18.27;12.55;;;;;;;;;;5024710;28;20463;-81
2022/10/23 00:04:14;;;;;;;16.67;11.88;;;;;;;;;;5028055;28;20425;-81
2022/10/23 00:06:41;;;;;;;18.63;12.17;;;;;;;;;;5026692;28;20423;-79
2022/10/23 00:09:09;;;;;;;20.27;11.95;;;;;;;;;;5021669;28;20420;-79
2022/10/23 00:11:35;;;;;;;14.75;10.70;;;;;;;;;;5023402;28;20431;-80
2022/10/23 00:14:04;;;;;;;14.65;11.80;;;;;;;;;;5022941;28;20417;-80
2022/10/23 00:16:31;;;;;;;20.08;11.00;;;;;;;;;;5024527;28;20413;-81
2022/10/23 00:18:57;;;;;;;14.80;11.43;;;;;;;;;;5024822;28;20419;-80
2022/10/23 00:21:24;;;;;;;19.35;12.27;;;;;;;;;;5026436;28;20484;-81
2022/10/23 00:23:51;;;;;;;17.30;12.00;;;;;;;;;;5022930;28;20428;-80
2022/10/23 00:26:17;;;;;;;17.67;12.30;;;;;;;;;;5024487;28;20408;-81
2022/10/23 00:28:44;;;;;;;21.27;13.95;;;;;;;;;;5026133;28;20419;-80
2022/10/23 00:31:13;;;;;;;19.15;13.35;;;;;;;;;;5027986;28;20417;-81
2022/10/23 00:33:39;;;;;;;19.67;13.70;;;;;;;;;;5024124;28;20960;-80
2022/10/23 00:36:06;;;;;;;18.05;13.40;;;;;;;;;;5024951;28;20432;-80
2022/10/23 00:38:33;;;;;;;19.08;13.20;;;;;;;;;;5025644;28;20794;-81
2022/10/23 00:40:59;;;;;;;14.90;11.80;;;;;;;;;;5024081;28;20427;-81
2022/10/23 00:43:26;;;;;;;15.45;11.25;;;;;;;;;;5023173;28;20433;-81
2022/10/23 00:45:53;;;;;;;18.73;12.07;;;;;;;;;;5025368;28;20428;-81
2022/10/23 00:48:21;;;;;;;15.02;11.30;;;;;;;;;;5024379;28;20421;-81
2022/10/23 00:50:48;;;;;;;19.58;13.35;;;;;;;;;;5024961;28;20433;-80
2022/10/23 00:53:15;;;;;;;19.13;13.90;;;;;;;;;;5026343;28;20433;-80
2022/10/23 00:55:44;;;;;;;20.70;13.05;;;;;;;;;;5026277;28;20436;-81
2022/10/23 00:58:11;;;;;;;18.05;13.25;;;;;;;;;;5023897;28;20436;-81
2022/10/23 01:00:42;;;;;;;18.83;12.88;;;;;;;;;;5027242;28;20408;-81
2022/10/23 01:03:08;;;;;;;19.20;12.90;;;;;;;;;;5026025;28;20998;-80
2022/10/23 01:05:41;;;;;;;22.05;12.40;;;;;;;;;;5028305;28;20424;-81
2022/10/23 01:08:10;;;;;;;17.37;12.80;;;;;;;;;;5029898;28;20433;-81
2022/10/23 01:10:39;;;;;;;20.53;12.00;;;;;;;;;;5026001;28;20427;-80
2022/10/23 01:13:08;;;;;;;24.00;11.63;;;;;;;;;;5023887;28;20464;-79
2022/10/23 01:15:37;;;;;;;18.55;11.55;;;;;;;;;;5024496;28;20807;-81
2022/10/23 01:18:07;;;;;;;17.73;12.27;;;;;;;;;;5023304;28;20948;-80
2022/10/23 01:20:40;;;;;;;22.52;13.98;;;;;;;;;;5029483;28;20430;-80
2022/10/23 01:23:21;;;;;;;19.50;12.20;;;;;;;;;;5023508;28;20422;-79
2022/10/23 01:25:54;;;;;;;18.50;12.48;;;;;;;;;;5016727;28;20432;-79
2022/10/23 01:28:24;;;;;;;24.38;13.07;;;;;;;;;;5022882;28;20422;-80
2022/10/23 01:30:51;;;;;;;18.67;12.60;;;;;;;;;;5025108;28;20924;-80
2022/10/23 01:33:20;;;;;;;18.40;12.70;;;;;;;;;;5026272;28;20417;-80
2022/10/23 01:35:49;;;;;;;19.77;12.90;;;;;;;;;;5025770;28;20432;-81
2022/10/23 01:38:20;;;;;;;21.55;13.57;;;;;;;;;;5023323;28;20428;-81
2022/10/23 01:40:48;;;;;;;19.75;13.43;;;;;;;;;;5028713;28;20441;-79
2022/10/23 01:43:18;;;;;;;22.92;14.70;;;;;;;;;;5023011;28;20431;-81
2022/10/23 01:45:47;;;;;;;21.23;13.75;;;;;;;;;;5025112;28;20450;-81
2022/10/23 01:48:16;;;;;;;21.90;15.90;;;;;;;;;;5024068;28;20518;-81
2022/10/23 01:50:44;;;;;;;22.17;14.07;;;;;;;;;;5023131;28;20916;-80
2022/10/23 01:53:10;;;;;;;21.17;13.93;;;;;;;;;;5022096;28;20422;-80
2022/10/23 01:55:38;;;;;;;20.40;15.70;;;;;;;;;;5025472;28;20434;-80
2022/10/23 01:58:06;;;;;;;25.20;16.08;;;;;;;;;;5022908;28;20432;-81
2022/10/23 02:00:33;;;;;;;23.67;16.27;;;;;;;;;;5021891;28;20506;-81
2022/10/23 02:03:03;;;;;;;22.65;15.80;;;;;;;;;;5027102;28;20487;-81
2022/10/23 02:05:30;;;;;;;26.23;16.50;;;;;;;;;;5028921;28;20460;-80
2022/10/23 02:07:56;;;;;;;30.10;17.95;;;;;;;;;;5031935;28;20414;-81
2022/10/23 02:10:29;;;;;;;29.13;17.00;;;;;;;;;;5027235;28;20440;-80
2022/10/23 02:12:58;;;;;;;23.00;15.23;;;;;;;;;;5026852;28;20946;-80
2022/10/23 02:15:28;;;;;;;25.55;16.20;;;;;;;;;;5026177;28;20938;-80
2022/10/23 02:18:03;;;;;;;24.33;16.02;;;;;;;;;;5025048;28;20431;-79
2022/10/23 02:20:35;;;;;;;23.90;16.42;;;;;;;;;;5027976;28;20430;-80
2022/10/23 02:23:05;;;;;;;28.58;17.45;;;;;;;;;;5023802;28;20985;-79
2022/10/23 02:25:33;;;;;;;22.92;16.52;;;;;;;;;;5027809;28;20423;-82
2022/10/23 02:28:02;;;;;;;22.77;15.65;;;;;;;;;;5027563;28;20427;-80
2022/10/23 02:30:30;;;;;;;25.83;17.60;;;;;;;;;;5026305;28;20440;-80
2022/10/23 02:32:58;;;;;;;26.97;17.83;;;;;;;;;;5028119;28;20435;-81
2022/10/23 02:35:24;;;;;;;21.52;16.08;;;;;;;;;;5025063;28;20794;-80
2022/10/23 02:37:56;;;;;;;25.00;15.82;;;;;;;;;;5026157;28;20419;-81
2022/10/23 02:40:23;;;;;;;20.10;14.20;;;;;;;;;;5026374;28;20433;-80
2022/10/23 02:42:53;;;;;;;19.02;13.05;;;;;;;;;;5024909;28;20422;-79
2022/10/23 02:45:24;;;;;;;19.75;14.05;;;;;;;;;;5028613;28;20429;-81
2022/10/23 02:47:53;;;;;;;19.90;14.38;;;;;;;;;;5026152;28;20458;-81
2022/10/23 02:50:25;;;;;;;22.25;14.73;;;;;;;;;;5026106;28;20427;-80
2022/10/23 02:52:58;;;;;;;21.52;13.95;;;;;;;;;;5026809;28;20432;-81
2022/10/23 02:55:30;;;;;;;19.05;12.85;;;;;;;;;;5027507;28;20434;-81
2022/10/23 02:57:57;;;;;;;20.35;14.10;;;;;;;;;;5026338;28;20433;-80
2022/10/23 03:00:24;;;;;;;19.08;13.68;;;;;;;;;;5027558;28;20438;-81
2022/10/23 03:02:54;;;;;;;21.50;13.60;;;;;;;;;;5027377;28;20429;-82
2022/10/23 03:05:25;;;;;;;16.40;12.68;;;;;;;;;;5026833;28;20428;-80
2022/10/23 03:07:52;;;;;;;24.38;14.35;;;;;;;;;;5023087;28;20446;-81
2022/10/23 03:10:19;;;;;;;19.15;13.40;;;;;;;;;;5026266;28;20436;-82
2022/10/23 03:12:47;;;;;;;20.15;12.23;;;;;;;;;;5032120;28;20428;-80
2022/10/23 03:15:14;;;;;;;23.35;13.45;;;;;;;;;;5025053;28;20486;-79
2022/10/23 03:17:40;;;;;;;22.60;14.60;;;;;;;;;;5027035;28;21413;-79
2022/10/23 03:20:07;;;;;;;20.93;15.03;;;;;;;;;;5029854;28;20435;-80
2022/10/23 03:22:34;;;;;;;19.58;14.00;;;;;;;;;;5025936;28;20427;-80
2022/10/23 03:25:00;;;;;;;18.75;13.73;;;;;;;;;;5025209;28;20496;-79
2022/10/23 03:27:26;;;;;;;21.65;15.55;;;;;;;;;;5026372;28;20424;-80
2022/10/23 03:29:54;;;;;;;19.90;13.32;;;;;;;;;;5025273;28;20436;-80
2022/10/23 03:32:21;;;;;;;18.60;12.82;;;;;;;;;;5025030;28;20926;-80
2022/10/23 03:34:47;;;;;;;19.88;12.60;;;;;;;;;;5028242;28;20437;-80
2022/10/23 03:37:13;;;;;;;17.00;11.98;;;;;;;;;;5023329;28;20413;-81
2022/10/23 03:39:40;;;;;;;16.83;12.32;;;;;;;;;;5027337;28;20431;-80
2022/10/23 03:42:06;;;;;;;19.50;12.50;;;;;;;;;;5027251;28;20527;-79
2022/10/23 03:44:33;;;;;;;17.00;11.02;;;;;;;;;;5026161;28;21073;-80
2022/10/23 03:47:01;;;;;;;15.70;11.50;;;;;;;;;;5025689;28;20925;-81
2022/10/23 03:49:27;;;;;;;17.75;11.82;;;;;;;;;;5025807;28;20451;-80
2022/10/23 03:51:54;;;;;;;15.63;12.20;;;;;;;;;;5025816;28;20431;-81
2022/10/23 03:54:21;;;;;;;17.30;12.60;;;;;;;;;;5027301;28;20419;-81
2022/10/23 03:56:48;;;;;;;16.05;12.15;;;;;;;;;;5024187;28;20430;-81
2022/10/23 03:59:14;;;;;;;16.67;11.70;;;;;;;;;;5025164;28;20791;-80
2022/10/23 04:01:40;;;;;;;17.57;11.77;;;;;;;;;;5027329;28;20433;-81
2022/10/23 04:04:08;;;;;;;18.52;12.88;;;;;;;;;;5021811;28;20430;-81
2022/10/23 04:06:35;;;;;;;16.92;12.57;;;;;;;;;;5024362;28;20427;-81
2022/10/23 04:09:01;;;;;;;17.60;12.50;;;;;;;;;;5023328;28;20425;-81
2022/10/23 04:11:28;;;;;;;17.85;12.98;;;;;;;;;;5027354;28;20430;-82
2022/10/23 04:13:54;;;;;;;19.83;14.27;;;;;;;;;;5024126;28;20428;-80
2022/10/23 04:16:20;;;;;;;19.90;13.63;;;;;;;;;;5026538;28;20962;-79
2022/10/23 04:18:47;;;;;;;19.73;13.13;;;;;;;;;;5029210;28;20423;-81
2022/10/23 04:21:14;;;;;;;16.93;11.83;;;;;;;;;;5029393;28;20426;-80
2022/10/23 04:23:41;;;;;;;20.75;12.20;;;;;;;;;;5020441;28;20449;-80
2022/10/23 04:26:08;;;;;;;17.02;12.40;;;;;;;;;;5022231;28;20913;-80
2022/10/23 04:28:34;;;;;;;21.50;13.88;;;;;;;;;;5025068;28;20625;-80
2022/10/23 04:31:00;;;;;;;17.17;12.25;;;;;;;;;;5025958;28;20435;-80
2022/10/23 04:33:27;;;;;;;21.20;12.88;;;;;;;;;;5024647;28;20419;-80
2022/10/23 04:35:53;;;;;;;24.58;12.05;;;;;;;;;;5023218;28;20920;-80
2022/10/23 04:38:21;;;;;;;25.67;14.02;;;;;;;;;;5021095;28;20956;-79
2022/10/23 04:40:47;;;;;;;18.40;13.32;;;;;;;;;;5025242;28;20430;-81
2022/10/23 04:43:13;;;;;;;20.70;13.73;;;;;;;;;;5025133;28;20419;-80
2022/10/23 04:45:40;;;;;;;21.85;13.48;;;;;;;;;;5027919;28;20804;-79
2022/10/23 04:48:06;;;;;;;23.45;12.20;;;;;;;;;;5024066;28;20421;-82
2022/10/23 04:50:32;;;;;;;20.40;12.63;;;;;;;;;;5023908;28;20434;-81
2022/10/23 04:52:59;;;;;;;17.63;13.50;;;;;;;;;;5024534;28;20920;-81
2022/10/23 04:55:26;;;;;;;17.83;12.20;;;;;;;;;;5024362;28;20434;-80
2022/10/23 04:57:53;;;;;;;20.55;12.68;;;;;;;;;;5025768;28;20411;-81
2022/10/23 05:00:19;;;;;;;20.40;14.57;;;;;;;;;;5022969;28;20435;-81
2022/10/23 05:02:46;;;;;;;20.50;13.82;;;;;;;;;;5027868;28;20446;-80
2022/10/23 05:05:12;;;;;;;24.33;14.30;;;;;;;;;;5024651;28;20433;-81
2022/10/23 05:07:38;;;;;;;20.63;13.70;;;;;;;;;;5021806;28;20421;-80
2022/10/23 05:10:05;;;;;;;18.98;12.82;;;;;;;;;;5024326;28;20440;-81
2022/10/23 05:12:33;;;;;;;19.70;13.32;;;;;;;;;;5023140;28;20432;-80
2022/10/23 05:15:00;;;;;;;20.17;13.40;;;;;;;;;;5029033;28;20439;-79
2022/10/23 05:17:28;;;;;;;19.48;13.80;;;;;;;;;;5025513;28;20423;-80
2022/10/23 05:19:56;;;;;;;21.93;14.20;;;;;;;;;;5022635;28;20435;-80
2022/10/23 05:22:24;;;;;;;23.42;14.13;;;;;;;;;;5025552;28;20795;-80
2022/10/23 05:24:50;;;;;;;18.35;12.90;;;;;;;;;;5024330;28;20462;-81
2022/10/23 05:27:17;;;;;;;22.80;13.82;;;;;;;;;;5024466;28;20435;-80
2022/10/23 05:29:45;;;;;;;18.05;12.52;;;;;;;;;;5025832;28;20433;-80
2022/10/23 05:32:13;;;;;;;19.13;13.35;;;;;;;;;;5024606;28;20727;-80
2022/10/23 05:34:40;;;;;;;21.10;14.68;;;;;;;;;;5022238;28;20455;-80
2022/10/23 05:37:08;;;;;;;17.65;12.98;;;;;;;;;;5028431;28;20781;-81
2022/10/23 05:39:34;;;;;;;19.00;13.57;;;;;;;;;;5028686;28;20434;-79
2022/10/23 05:42:01;;;;;;;17.13;13.23;;;;;;;;;;5028118;28;20435;-79
2022/10/23 05:44:27;;;;;;;19.43;13.90;;;;;;;;;;5027957;28;20438;-79
2022/10/23 05:46:55;;;;;;;20.30;13.35;;;;;;;;;;5028720;28;20426;-81
2022/10/23 05:49:23;;;;;;;19.48;12.73;;;;;;;;;;5029539;28;20424;-81
2022/10/23 05:51:50;;;;;;;17.73;13.40;;;;;;;;;;5026738;28;20848;-80
2022/10/23 05:54:16;;;;;;;23.08;15.65;;;;;;;;;;5028990;28;20508;-81
2022/10/23 05:56:42;;;;;;;22.42;13.75;;;;;;;;;;5031056;28;20431;-81
2022/10/23 05:59:09;;;;;;;20.48;14.02;;;;;;;;;;5027488;28;20411;-80
2022/10/23 06:01:36;;;;;;;22.20;14.43;;;;;;;;;;5029513;28;20415;-80
2022/10/23 06:04:04;;;;;;;24.52;16.65;;;;;;;;;;5028627;28;20432;-80
2022/10/23 06:06:31;;;;;;;24.17;16.63;;;;;;;;;;5028501;28;20433;-81
2022/10/23 06:08:57;;;;;;;24.98;17.05;;;;;;;;;;5030370;28;20423;-81
2022/10/23 06:11:23;;;;;;;22.50;15.40;;;;;;;;;;5026946;28;20502;-81
2022/10/23 06:13:50;;;;;;;22.65;16.85;;;;;;;;;;5028718;28;20439;-81
2022/10/23 06:16:17;;;;;;;24.25;15.65;;;;;;;;;;5029728;28;20436;-80
2022/10/23 06:18:44;;;;;;;24.77;15.25;;;;;;;;;;5030544;28;20434;-80
2022/10/23 06:21:13;;;;;;;20.93;14.93;;;;;;;;;;5027702;28;20435;-80
2022/10/23 06:23:40;;;;;;;23.05;14.63;;;;;;;;;;5023809;28;20425;-80
2022/10/23 06:26:07;;;;;;;19.92;15.40;;;;;;;;;;5029950;28;20407;-81
2022/10/23 06:28:33;;;;;;;20.65;15.25;;;;;;;;;;5028286;28;20432;-80
2022/10/23 06:31:00;;;;;;;27.88;16.92;;;;;;;;;;5028590;28;20438;-80
2022/10/23 06:33:27;;;;;;;25.45;16.80;;;;;;;;;;5029055;28;20436;-80
2022/10/23 06:35:55;;;;;;;23.83;15.70;;;;;;;;;;5026965;28;20426;-80
2022/10/23 06:38:23;;;;;;;21.93;15.77;;;;;;;;;;5025969;28;20446;-81
2022/10/23 06:40:52;;;;;;;30.30;17.73;;;;;;;;;;5025442;28;20435;-79
2022/10/23 06:43:18;;;;;;;24.23;16.10;;;;;;;;;;5026435;28;20963;-82
2022/10/23 06:45:45;;;;;;;23.05;16.83;;;;;;;;;;5024612;28;20428;-80
2022/10/23 06:48:11;;;;;;;24.75;16.00;;;;;;;;;;5026941;28;20427;-80
2022/10/23 06:50:38;;;;;;;23.27;16.40;;;;;;;;;;5027377;28;21034;-80
2022/10/23 06:53:05;;;;;;;27.90;17.35;;;;;;;;;;5027358;28;20451;-80
2022/10/23 06:55:33;;;;;;;25.67;17.07;;;;;;;;;;5028806;28;20478;-80
2022/10/23 06:58:02;;;;;;;27.10;16.57;;;;;;;;;;5025076;28;20428;-82
2022/10/23 07:00:28;;;;;;;26.50;16.52;;;;;;;;;;5026902;28;20432;-82
2022/10/23 07:02:54;;;;;;;21.52;15.25;;;;;;;;;;5025235;28;20506;-79
2022/10/23 07:05:21;;;;;;;25.42;17.20;;;;;;;;;;5025774;28;20428;-82
2022/10/23 07:07:47;;;;;;;25.88;16.75;;;;;;;;;;5024745;28;20430;-82
2022/10/23 07:10:14;;;;;;;28.50;17.85;;;;;;;;;;5024648;28;20428;-79
2022/10/23 07:12:42;;;;;;;23.35;16.65;;;;;;;;;;5025096;28;20426;-79
2022/10/23 07:15:09;;;;;;;25.42;17.85;;;;;;;;;;5024347;28;20481;-81
2022/10/23 07:17:35;;;;;;;28.55;17.90;;;;;;;;;;5023423;28;20419;-82
2022/10/23 07:20:02;;;;;;;25.45;17.13;;;;;;;;;;5022748;28;21610;-80
2022/10/23 07:22:28;;;;;;;25.88;18.40;;;;;;;;;;5024595;28;20423;-82
2022/10/23 07:24:56;;;;;;;27.60;17.08;;;;;;;;;;5022094;28;20423;-82
2022/10/23 07:27:23;;;;;;;27.33;17.23;;;;;;;;;;5027900;28;20434;-82
2022/10/23 07:29:51;;;;;;;25.10;16.75;;;;;;;;;;5026531;28;20446;-81
2022/10/23 07:32:18;;;;;;;28.85;18.52;;;;;;;;;;5028197;28;20432;-82
2022/10/23 07:34:44;;;;;;;25.67;17.10;;;;;;;;;;5026646;28;20828;-80
2022/10/23 07:37:10;;;;;;;26.30;17.92;;;;;;;;;;5025644;28;20431;-81
2022/10/23 07:39:37;;;;;;;27.20;17.60;;;;;;;;;;5028124;28;20438;-82
2022/10/23 07:42:03;;;;;;;25.52;17.20;;;;;;;;;;5025117;28;20435;-79
2022/10/23 07:44:30;;;;;;;26.20;18.10;;;;;;;;;;5026551;28;20518;-80
2022/10/23 07:46:57;;;;;;;28.00;17.67;;;;;;;;;;5027732;28;20436;-81
2022/10/23 07:49:24;;;;;;;26.92;17.05;;;;;;;;;;5023616;28;20446;-80
2022/10/23 07:51:51;;;;;;;28.63;17.90;;;;;;;;;;5022934;28;20428;-80
2022/10/23 07:54:18;;;;;;;27.52;17.55;;;;;;;;;;5024047;28;20493;-80
2022/10/23 07:56:44;;;;;;;20.80;15.65;;;;;;;;;;5019726;28;20435;-82
2022/10/23 07:59:11;;;;;;;25.52;16.00;;;;;;;;;;5025353;28;20434;-80
2022/10/23 08:01:38;;;;;;;25.63;16.92;;;;;;;;;;5019968;28;20425;-82
2022/10/23 08:04:06;;;;;;;27.38;15.90;;;;;;;;;;5022585;28;20436;-82
2022/10/23 08:06:34;;;;;;;22.90;15.90;;;;;;;;;;5024242;28;20924;-82
2022/10/23 08:09:01;;;;;;;26.80;16.70;;;;;;;;;;5020802;28;20435;-81
2022/10/23 08:11:29;;;;;;;25.00;15.68;;;;;;;;;;5021763;28;20436;-82
2022/10/23 08:13:57;;;;;;;26.58;15.05;;;;;;;;;;5024137;28;20427;-82
2022/10/23 08:16:24;;;;;;;21.30;14.80;;;;;;;;;;5024441;28;20429;-82
2022/10/23 08:18:50;;;;;;;19.65;15.07;;;;;;;;;;5024952;28;20439;-82
2022/10/23 08:21:18;;;;;;;22.13;14.95;;;;;;;;;;5024658;28;20438;-80
2022/10/23 08:23:45;;;;;;;21.67;15.30;;;;;;;;;;5022813;28;20793;-82
2022/10/23 08:26:12;;;;;;;19.83;14.23;;;;;;;;;;5023504;28;20433;-80
2022/10/23 08:28:38;;;;;;;26.95;14.70;;;;;;;;;;5024349;28;20760;-82
2022/10/23 08:31:09;;;;;;;21.88;14.50;;;;;;;;;;5021891;28;20446;-82
2022/10/23 08:33:35;;;;;;;24.73;15.05;;;;;;;;;;5019676;28;20849;-82
2022/10/23 08:36:02;;;;;;;22.48;13.90;;;;;;;;;;5025471;28;20431;-82
2022/10/23 08:38:30;;;;;;;21.55;15.05;;;;;;;;;;5023322;28;20922;-83
2022/10/23 08:40:56;;;;;;;19.33;12.70;;;;;;;;;;5021266;28;20442;-80
2022/10/23 08:43:28;;;;;;;20.67;14.02;;;;;;;;;;5024459;28;20436;-80
2022/10/23 08:45:56;;;;;;;19.33;13.60;;;;;;;;;;5023758;28;20987;-80
2022/10/23 08:48:25;;;;;;;21.48;14.20;;;;;;;;;;5023987;28;20434;-80
2022/10/23 08:50:54;;;;;;;23.60;14.52;;;;;;;;;;5026973;28;20411;-80
2022/10/23 08:53:24;;;;;;;21.88;14.13;;;;;;;;;;5024767;28;20937;-80
2022/10/23 08:55:55;;;;;;;24.00;13.95;;;;;;;;;;5021062;28;20790;-81
2022/10/23 08:58:24;;;;;;;23.42;14.18;;;;;;;;;;5021581;28;20832;-81
2022/10/23 09:00:51;;;;;;;21.77;13.45;;;;;;;;;;5025463;28;20804;-80
2022/10/23 09:03:18;;;;;;;22.80;14.10;;;;;;;;;;5026021;28;21394;-80
2022/10/23 09:05:50;;;;;;;22.48;14.10;;;;;;;;;;5028766;28;20429;-80
2022/10/23 09:08:23;;;;;;;18.42;13.90;;;;;;;;;;5024774;28;20436;-81
2022/10/23 09:11:07;;;;;;;22.35;14.00;;;;;;;;;;5026642;28;20427;-80
2022/10/23 09:13:50;;;;;;;21.00;13.53;;;;;;;;;;5025378;28;20529;-82
2022/10/23 09:16:20;;;;;;;17.17;13.13;;;;;;;;;;5024801;28;20423;-82
2022/10/23 09:18:48;;;;;;;21.20;13.25;;;;;;;;;;5023895;28;20438;-80
2022/10/23 09:21:14;;;;;;;16.77;12.65;;;;;;;;;;5025385;28;20441;-81
2022/10/23 09:23:41;;;;;;;17.50;12.02;;;;;;;;;;5026816;28;20427;-80
2022/10/23 09:26:11;;;;;;;14.98;11.73;;;;;;;;;;5021176;28;20428;-80
2022/10/23 09:28:43;;;;;;;18.83;12.77;;;;;;;;;;5022750;28;20420;-80
2022/10/23 09:31:11;;;;;;;21.17;12.00;;;;;;;;;;5026230;28;20460;-80
2022/10/23 09:33:38;;;;;;;17.15;11.60;;;;;;;;;;5023037;28;20432;-82
2022/10/23 09:36:06;;;;;;;18.90;11.52;;;;;;;;;;5027072;28;20911;-80
2022/10/23 09:38:34;;;;;;;15.45;11.63;;;;;;;;;;5026671;28;20782;-80
2022/10/23 09:41:02;;;;;;;20.80;11.80;;;;;;;;;;5024756;28;20990;-83
2022/10/23 09:43:29;;;;;;;21.35;11.80;;;;;;;;;;5026695;28;20847;-80
2022/10/23 09:45:57;;;;;;;14.20;11.02;;;;;;;;;;5021771;28;20452;-80
2022/10/23 09:48:25;;;;;;;16.92;12.23;;;;;;;;;;5023389;28;20427;-82
2022/10/23 09:50:53;;;;;;;15.82;11.95;;;;;;;;;;5023252;28;20431;-80
2022/10/23 09:53:29;;;;;;;14.82;11.63;;;;;;;;;;5024358;28;20432;-80
2022/10/23 09:55:56;;;;;;;14.60;10.90;;;;;;;;;;5033679;28;20419;-80
2022/10/23 09:58:27;;;;;;;14.32;10.88;;;;;;;;;;5043953;28;20773;-80
2022/10/23 10:00:53;;;;;;;17.63;11.80;;;;;;;;;;5037178;28;20428;-80
2022/10/23 10:03:21;;;;;;;14.13;10.60;;;;;;;;;;5026094;28;20434;-80
2022/10/23 10:05:55;;;;;;;17.53;11.50;;;;;;;;;;5021341;28;20512;-81
2022/10/23 10:08:25;;;;;;;15.25;11.90;;;;;;;;;;5022514;28;20427;-80
2022/10/23 10:10:54;;;;;;;13.85;11.13;;;;;;;;;;5026004;28;20427;-81
2022/10/23 10:13:29;;;;;;;18.67;11.30;;;;;;;;;;5028273;28;20807;-80
2022/10/23 10:15:58;;;;;;;14.95;11.40;;;;;;;;;;5024570;28;20434;-80
2022/10/23 10:18:28;;;;;;;19.45;11.38;;;;;;;;;;5022982;28;20431;-80
2022/10/23 10:20:59;;;;;;;15.43;10.80;;;;;;;;;;5024437;28;20438;-80
2022/10/23 10:23:28;;;;;;;14.27;10.02;;;;;;;;;;5024993;28;20428;-81
2022/10/23 10:26:00;;;;;;;20.33;11.40;;;;;;;;;;5028711;28;20806;-80
2022/10/23 10:28:40;;;;;;;14.48;10.13;;;;;;;;;;5030635;28;20439;-81
2022/10/23 10:31:14;;;;;;;13.60;10.27;;;;;;;;;;5026190;28;20430;-80
2022/10/23 10:33:45;;;;;;;17.00;10.93;;;;;;;;;;5026186;28;20469;-80
2022/10/23 10:36:19;;;;;;;18.98;10.93;;;;;;;;;;5023992;28;20479;-80
2022/10/23 10:38:48;;;;;;;14.93;10.68;;;;;;;;;;5027540;28;20468;-80
2022/10/23 10:41:37;;;;;;;16.50;10.10;;;;;;;;;;5026973;28;20427;-82
2022/10/23 10:44:22;;;;;;;17.10;10.73;;;;;;;;;;5025468;28;20439;-82
2022/10/23 10:46:52;;;;;;;12.70;10.23;;;;;;;;;;5023160;28;20462;-82
2022/10/23 10:49:21;;;;;;;17.60;10.25;;;;;;;;;;5027192;28;20413;-82
2022/10/23 10:52:00;;;;;;;13.25;9.98;;;;;;;;;;5026182;28;20444;-80
2022/10/23 10:54:33;;;;;;;14.23;10.43;;;;;;;;;;5025553;28;20462;-80
2022/10/23 10:57:00;;;;;;;14.32;10.50;;;;;;;;;;5022725;28;20433;-80
2022/10/23 10:59:28;;;;;;;14.82;9.85;;;;;;;;;;5027908;28;20428;-80
2022/10/23 11:01:56;;;;;;;14.68;10.77;;;;;;;;;;5027642;28;20436;-80
2022/10/23 11:04:29;;;;;;;14.20;9.93;;;;;;;;;;5025229;28;20917;-80
2022/10/23 11:06:57;;;;;;;15.57;9.73;;;;;;;;;;5027467;28;20428;-80
2022/10/23 11:09:25;;;;;;;17.70;11.10;;;;;;;;;;5027307;28;20434;-81
2022/10/23 11:11:51;;;;;;;16.75;10.30;;;;;;;;;;5023540;28;20431;-80
2022/10/23 11:14:18;;;;;;;14.37;9.53;;;;;;;;;;5025231;28;20441;-80
2022/10/23 11:16:46;;;;;;;14.05;10.30;;;;;;;;;;5021769;28;20421;-80
2022/10/23 11:19:16;;;;;;;12.73;9.20;;;;;;;;;;5025452;28;20432;-80
2022/10/23 11:21:44;;;;;;;13.52;9.20;;;;;;;;;;5022505;28;20436;-81
2022/10/23 11:24:20;;;;;;;14.15;9.60;;;;;;;;;;5027136;28;20441;-80
2022/10/23 11:26:53;;;;;;;20.23;9.32;;;;;;;;;;5026960;28;20452;-80
2022/10/23 11:29:32;;;;;;;15.70;9.85;;;;;;;;;;5027545;28;20433;-81
2022/10/23 11:32:05;;;;;;;15.80;8.53;;;;;;;;;;5024292;28;20437;-82
2022/10/23 11:34:52;;;;;;;9.73;8.73;;;;;;;;;;5029280;28;20444;-82
2022/10/23 11:37:19;;;;;;;12.10;8.60;;;;;;;;;;5022136;28;20506;-80
2022/10/23 11:40:00;;;;;;;15.75;8.10;;;;;;;;;;5026231;28;20431;-83
2022/10/23 11:42:31;;;;;;;13.77;8.20;;;;;;;;;;5025067;28;20411;-80
2022/10/23 11:44:57;;;;;;;10.68;8.02;;;;;;;;;;5022594;28;20426;-82
2022/10/23 11:47:30;;;;;;;11.07;7.90;;;;;;;;;;5024265;28;20425;-82
2022/10/23 11:50:16;;;;;;;14.30;7.30;;;;;;;;;;5022972;28;20491;-82
2022/10/23 11:52:53;;;;;;;14.32;7.60;;;;;;;;;;5023578;28;20924;-82
2022/10/23 11:55:23;;;;;;;15.00;7.40;;;;;;;;;;5025131;28;20425;-82
2022/10/23 11:58:08;;;;;;;10.23;7.72;;;;;;;;;;5027544;28;20993;-82
2022/10/23 12:00:38;;;;;;;10.93;7.50;;;;;;;;;;5025453;28;20430;-80
2022/10/23 12:03:05;;;;;;;13.40;7.63;;;;;;;;;;5027365;28;20440;-80
2022/10/23 12:05:35;;;;;;;13.30;8.10;;;;;;;;;;5021079;28;20408;-81
2022/10/23 12:08:04;;;;;;;16.55;7.68;;;;;;;;;;5025059;28;20511;-79
2022/10/23 12:10:34;;;;;;;8.77;6.80;;;;;;;;;;5026117;28;20413;-81
2022/10/23 12:13:02;;;;;;;14.40;7.18;;;;;;;;;;5025733;28;20456;-81
2022/10/23 12:15:29;;;;;;;12.18;6.38;;;;;;;;;;5024657;28;20411;-80
2022/10/23 12:17:57;;;;;;;12.23;6.80;;;;;;;;;;5024400;28;20852;-81
2022/10/23 12:20:26;;;;;;;12.68;7.25;;;;;;;;;;5028464;28;20435;-81
2022/10/23 12:23:03;;;;;;;11.65;6.40;;;;;;;;;;5025257;28;20425;-81
2022/10/23 12:25:33;;;;;;;9.63;6.35;;;;;;;;;;5022415;28;20415;-82
2022/10/23 12:28:06;;;;;;;12.05;6.20;;;;;;;;;;5024234;28;20427;-80
2022/10/23 12:30:39;;;;;;;10.63;6.50;;;;;;;;;;5021941;28;20918;-80
2022/10/23 12:33:11;;;;;;;8.52;6.05;;;;;;;;;;5022402;28;20440;-80
2022/10/23 12:35:48;;;;;;;9.10;5.72;;;;;;;;;;5022594;28;20455;-80
2022/10/23 12:38:16;;;;;;;12.10;6.30;;;;;;;;;;5022954;28;20475;-80
2022/10/23 12:40:44;;;;;;;12.90;6.68;;;;;;;;;;5022866;28;20420;-82
2022/10/23 12:43:23;;;;;;;8.77;6.05;;;;;;;;;;5024536;28;20934;-80
2022/10/23 12:45:50;;;;;;;10.27;5.63;;;;;;;;;;5024276;28;20431;-81
2022/10/23 12:48:18;;;;;;;11.00;5.90;;;;;;;;;;5023737;28;20752;-80
2022/10/23 12:50:49;;;;;;;13.20;5.70;;;;;;;;;;5025324;28;20926;-82
2022/10/23 12:53:17;;;;;;;9.07;6.10;;;;;;;;;;5027209;28;20473;-82
2022/10/23 12:55:48;;;;;;;11.00;5.97;;;;;;;;;;5024318;28;20415;-80
2022/10/23 12:58:18;;;;;;;11.75;6.28;;;;;;;;;;5025366;28;20436;-81
2022/10/23 13:00:51;;;;;;;7.53;5.10;;;;;;;;;;5024067;28;20430;-81
2022/10/23 13:03:17;;;;;;;10.20;5.30;;;;;;;;;;5021251;28;20444;-81
2022/10/23 13:05:44;;;;;;;9.98;6.28;;;;;;;;;;5024259;28;20421;-81
2022/10/23 13:08:12;;;;;;;10.15;5.95;;;;;;;;;;5021132;28;20474;-82
2022/10/23 13:10:38;;;;;;;9.77;5.80;;;;;;;;;;5024639;28;20430;-81
2022/10/23 13:13:05;;;;;;;10.60;5.30;;;;;;;;;;5044379;28;20488;-82
2022/10/23 13:15:38;;;;;;;8.98;5.60;;;;;;;;;;5037346;28;20466;-81
2022/10/23 13:18:07;;;;;;;7.13;5.70;;;;;;;;;;5025406;28;20458;-81
2022/10/23 13:20:36;;;;;;;11.25;5.43;;;;;;;;;;5019559;28;20477;-81
2022/10/23 13:23:10;;;;;;;9.63;5.63;;;;;;;;;;5008639;28;20494;-81
2022/10/23 13:25:37;;;;;;;12.13;5.70;;;;;;;;;;5019269;28;20428;-81
2022/10/23 13:28:24;;;;;;;7.53;5.25;;;;;;;;;;5023240;28;20418;-81
2022/10/23 13:30:58;;;;;;;11.27;5.10;;;;;;;;;;5020300;28;20415;-81
2022/10/23 13:33:35;;;;;;;10.80;5.80;;;;;;;;;;5026455;28;20432;-81
2022/10/23 13:36:04;;;;;;;9.18;5.20;;;;;;;;;;5024370;28;20451;-81
2022/10/23 13:38:31;;;;;;;8.48;5.80;;;;;;;;;;5021883;28;20598;-81
2022/10/23 13:40:58;;;;;;;7.57;5.20;;;;;;;;;;5025198;28;20421;-81
2022/10/23 13:43:25;;;;;;;9.02;5.20;;;;;;;;;;5027803;28;20788;-80
2022/10/23 13:45:51;;;;;;;9.63;5.32;;;;;;;;;;5022714;28;20414;-80
2022/10/23 13:48:18;;;;;;;8.23;5.05;;;;;;;;;;5023828;28;20410;-80
2022/10/23 13:50:46;;;;;;;7.28;4.70;;;;;;;;;;5022017;28;20809;-82
2022/10/23 13:53:13;;;;;;;12.73;5.40;;;;;;;;;;5022596;28;20430;-82
2022/10/23 13:55:40;;;;;;;11.55;5.20;;;;;;;;;;5018679;28;20920;-82
2022/10/23 13:58:06;;;;;;;8.20;5.00;;;;;;;;;;5026651;28;20438;-80
2022/10/23 14:00:33;;;;;;;9.75;5.00;;;;;;;;;;5022604;28;21087;-80
2022/10/23 14:02:59;;;;;;;11.10;5.80;;;;;;;;;;5027770;28;20419;-82
2022/10/23 14:05:26;;;;;;;10.18;5.28;;;;;;;;;;5027392;28;20435;-82
2022/10/23 14:07:53;;;;;;;7.80;4.90;;;;;;;;;;5024058;28;20424;-82
2022/10/23 14:10:20;;;;;;;7.32;4.72;;;;;;;;;;5024264;28;20421;-82
2022/10/23 14:12:52;;;;;;;7.18;4.70;;;;;;;;;;5027262;28;20898;-80
2022/10/23 14:15:19;;;;;;;6.18;4.82;;;;;;;;;;5025265;28;20438;-82
2022/10/23 14:17:46;;;;;;;12.80;5.00;;;;;;;;;;5023485;28;20422;-82
2022/10/23 14:20:12;;;;;;;9.95;5.20;;;;;;;;;;5027550;28;20428;-80
2022/10/23 14:22:38;;;;;;;12.20;5.50;;;;;;;;;;5021848;28;20958;-80
2022/10/23 14:25:08;;;;;;;9.13;4.50;;;;;;;;;;5029318;28;20425;-82
2022/10/23 14:27:34;;;;;;;6.75;5.00;;;;;;;;;;5025655;28;20441;-81
2022/10/23 14:30:01;;;;;;;7.35;4.80;;;;;;;;;;5027697;28;20419;-81